Time;durP1;ratioP1;P1;durP2;ratioP2;P2;SDS_P1;SDS_P2;PMS_P1;PMS_P2;Temp;Humidity;BMP_temperature;BMP_pressure;BME280_temperature;BME280_humidity;BME280_pressure;Samples;Min_cycle;Max_cycle;Signal;HPM_P1;HPM_P2
2023/03/30 00:00:58;;;;;;;27.00;23.80;;;;;;;;;;4967843;28;20437;-73
2023/03/30 00:03:25;;;;;;;23.47;21.27;;;;;;;;;;4966186;28;20464;-73
2023/03/30 00:05:51;;;;;;;24.13;21.53;;;;;;;;;;4969215;28;20190;-73
2023/03/30 00:08:17;;;;;;;22.80;20.33;;;;;;;;;;4976472;28;20451;-73
2023/03/30 00:10:43;;;;;;;24.57;22.00;;;;;;;;;;4968921;28;20289;-73
2023/03/30 00:13:08;;;;;;;23.63;20.90;;;;;;;;;;4966279;28;20484;-73
2023/03/30 00:15:34;;;;;;;25.33;21.00;;;;;;;;;;4958211;28;20449;-73
2023/03/30 00:18:00;;;;;;;22.00;19.80;;;;;;;;;;4966490;28;20182;-74
2023/03/30 00:20:25;;;;;;;26.67;22.03;;;;;;;;;;4970464;28;20178;-73
2023/03/30 00:22:51;;;;;;;23.33;20.83;;;;;;;;;;4960802;28;20480;-72
2023/03/30 00:25:16;;;;;;;25.17;22.43;;;;;;;;;;4948720;28;20282;-73
2023/03/30 00:27:41;;;;;;;23.20;20.67;;;;;;;;;;4959268;28;20210;-73
2023/03/30 00:30:09;;;;;;;22.10;19.90;;;;;;;;;;4968139;28;20578;-73
2023/03/30 00:32:34;;;;;;;22.27;19.87;;;;;;;;;;4967352;28;20225;-73
2023/03/30 00:35:00;;;;;;;22.07;19.63;;;;;;;;;;4969101;28;20483;-73
2023/03/30 00:37:26;;;;;;;21.50;18.47;;;;;;;;;;4969315;28;20178;-73
2023/03/30 00:39:52;;;;;;;22.70;19.63;;;;;;;;;;4966704;28;20193;-73
2023/03/30 00:42:17;;;;;;;21.33;18.93;;;;;;;;;;4959692;28;20491;-73
2023/03/30 00:45:01;;;;;;;22.37;19.50;;;;;;;;;;4954913;28;20270;-73
2023/03/30 00:47:27;;;;;;;19.80;17.60;;;;;;;;;;4965100;28;20276;-73
2023/03/30 00:49:53;;;;;;;21.03;18.87;;;;;;;;;;4967105;28;20441;-73
2023/03/30 00:52:18;;;;;;;20.03;18.03;;;;;;;;;;4966646;28;20701;-73
2023/03/30 00:54:44;;;;;;;21.23;19.10;;;;;;;;;;4962027;28;20182;-73
2023/03/30 00:57:09;;;;;;;20.47;18.37;;;;;;;;;;4968208;28;20214;-73
2023/03/30 00:59:35;;;;;;;19.00;17.10;;;;;;;;;;4963740;28;20426;-73
2023/03/30 01:02:00;;;;;;;19.83;17.27;;;;;;;;;;4968808;28;20178;-73
2023/03/30 01:04:27;;;;;;;20.80;17.80;;;;;;;;;;4975786;28;20686;-73
2023/03/30 01:06:54;;;;;;;21.50;17.60;;;;;;;;;;4972478;28;20184;-73
2023/03/30 01:09:19;;;;;;;19.00;17.00;;;;;;;;;;4971834;28;20665;-73
2023/03/30 01:11:45;;;;;;;21.03;17.53;;;;;;;;;;4971578;28;20589;-74
2023/03/30 01:14:11;;;;;;;19.70;17.20;;;;;;;;;;4971194;28;20675;-73
2023/03/30 01:16:37;;;;;;;19.47;17.17;;;;;;;;;;4976047;28;20198;-73
2023/03/30 01:19:05;;;;;;;22.13;18.40;;;;;;;;;;4975364;28;20428;-73
2023/03/30 01:21:49;;;;;;;18.13;16.23;;;;;;;;;;4978377;28;20449;-73
2023/03/30 01:24:33;;;;;;;20.03;17.93;;;;;;;;;;4975561;28;20707;-73
2023/03/30 01:27:17;;;;;;;18.30;16.40;;;;;;;;;;4975559;28;20448;-74
2023/03/30 01:29:53;;;;;;;19.97;17.80;;;;;;;;;;4973380;28;20447;-73
2023/03/30 01:32:34;;;;;;;19.63;17.23;;;;;;;;;;4970947;28;21004;-73
2023/03/30 01:35:11;;;;;;;18.37;16.47;;;;;;;;;;4970222;28;20472;-73
2023/03/30 01:37:44;;;;;;;18.63;16.60;;;;;;;;;;4971224;28;20527;-73
2023/03/30 01:40:36;;;;;;;18.90;16.60;;;;;;;;;;4974087;28;20421;-74
2023/03/30 01:43:05;;;;;;;17.40;15.60;;;;;;;;;;4971474;28;20552;-73
2023/03/30 01:45:36;;;;;;;17.87;14.27;;;;;;;;;;4973706;28;20441;-74
2023/03/30 01:48:07;;;;;;;16.83;15.13;;;;;;;;;;4976017;28;20527;-73
2023/03/30 01:50:50;;;;;;;16.70;14.63;;;;;;;;;;4972750;28;20437;-73
2023/03/30 01:53:18;;;;;;;19.13;14.20;;;;;;;;;;4969254;28;20476;-73
2023/03/30 01:55:46;;;;;;;17.33;13.83;;;;;;;;;;4971747;28;20476;-73
2023/03/30 01:58:18;;;;;;;16.80;14.23;;;;;;;;;;4970213;28;20436;-74
2023/03/30 02:00:47;;;;;;;15.87;14.23;;;;;;;;;;4969040;28;20969;-74
2023/03/30 02:03:15;;;;;;;16.27;13.87;;;;;;;;;;4968871;28;20489;-73
2023/03/30 02:05:42;;;;;;;15.93;12.93;;;;;;;;;;4973938;28;20462;-73
2023/03/30 02:08:08;;;;;;;14.70;12.50;;;;;;;;;;4979552;28;20518;-74
2023/03/30 02:10:35;;;;;;;16.00;12.73;;;;;;;;;;4976780;28;20559;-73
2023/03/30 02:13:01;;;;;;;14.10;11.73;;;;;;;;;;4971272;28;20481;-73
2023/03/30 02:15:30;;;;;;;17.43;11.50;;;;;;;;;;4969840;28;20464;-73
2023/03/30 02:17:55;;;;;;;11.50;10.27;;;;;;;;;;4977096;28;20812;-73
2023/03/30 02:20:20;;;;;;;12.10;10.03;;;;;;;;;;4975027;28;20444;-74
2023/03/30 02:22:46;;;;;;;17.23;11.07;;;;;;;;;;4974105;28;20225;-73
2023/03/30 02:25:12;;;;;;;10.90;9.80;;;;;;;;;;4974477;28;20194;-73
2023/03/30 02:27:38;;;;;;;16.93;10.70;;;;;;;;;;4976795;28;20442;-73
2023/03/30 02:30:07;;;;;;;10.43;9.20;;;;;;;;;;4971806;28;20720;-73
2023/03/30 02:32:39;;;;;;;13.43;9.33;;;;;;;;;;4975945;28;20710;-73
2023/03/30 02:35:23;;;;;;;17.90;8.70;;;;;;;;;;4978239;28;20592;-73
2023/03/30 02:38:01;;;;;;;10.70;8.67;;;;;;;;;;4971338;28;20444;-73
2023/03/30 02:40:29;;;;;;;10.43;8.63;;;;;;;;;;4976936;28;20949;-73
2023/03/30 02:43:02;;;;;;;12.97;9.40;;;;;;;;;;4978983;28;20446;-73
2023/03/30 02:45:46;;;;;;;13.37;8.57;;;;;;;;;;4977097;28;20418;-74
2023/03/30 02:48:30;;;;;;;15.30;8.27;;;;;;;;;;4973415;28;20461;-74
2023/03/30 02:50:58;;;;;;;10.53;8.17;;;;;;;;;;4978258;28;20634;-74
2023/03/30 02:53:31;;;;;;;12.50;7.90;;;;;;;;;;4984377;28;20666;-74
2023/03/30 02:56:02;;;;;;;15.17;7.40;;;;;;;;;;4981301;28;20421;-74
2023/03/30 02:58:27;;;;;;;13.23;7.73;;;;;;;;;;4977635;28;20872;-74
2023/03/30 03:00:57;;;;;;;10.70;6.57;;;;;;;;;;4977696;28;20426;-74
2023/03/30 03:03:24;;;;;;;19.20;8.50;;;;;;;;;;4979504;28;20209;-74
2023/03/30 03:05:53;;;;;;;12.50;6.30;;;;;;;;;;4979816;28;20433;-74
2023/03/30 03:08:22;;;;;;;8.63;6.57;;;;;;;;;;4983069;28;21103;-74
2023/03/30 03:10:47;;;;;;;9.30;6.57;;;;;;;;;;4976210;28;20424;-73
2023/03/30 03:13:13;;;;;;;9.13;6.27;;;;;;;;;;4976710;28;21052;-74
2023/03/30 03:15:39;;;;;;;8.50;5.90;;;;;;;;;;4978362;28;20190;-74
2023/03/30 03:18:06;;;;;;;10.97;5.93;;;;;;;;;;4977134;28;20800;-74
2023/03/30 03:20:31;;;;;;;9.43;5.53;;;;;;;;;;4977698;28;20418;-73
2023/03/30 03:22:56;;;;;;;10.30;5.93;;;;;;;;;;4974176;28;21030;-74
2023/03/30 03:25:22;;;;;;;8.80;5.70;;;;;;;;;;4975735;28;20185;-74
2023/03/30 03:27:47;;;;;;;8.30;5.30;;;;;;;;;;4977149;28;20191;-74
2023/03/30 03:30:12;;;;;;;6.90;6.10;;;;;;;;;;4975925;28;20276;-73
2023/03/30 03:32:37;;;;;;;8.93;5.67;;;;;;;;;;4972905;28;20220;-74
2023/03/30 03:35:03;;;;;;;6.43;5.00;;;;;;;;;;4969597;28;20240;-74
2023/03/30 03:37:28;;;;;;;9.43;5.60;;;;;;;;;;4972958;28;20563;-73
2023/03/30 03:39:53;;;;;;;16.50;6.67;;;;;;;;;;4972643;28;20193;-73
2023/03/30 03:42:19;;;;;;;5.30;4.80;;;;;;;;;;4970937;28;20200;-74
2023/03/30 03:44:44;;;;;;;13.67;5.50;;;;;;;;;;4975660;28;20190;-74
2023/03/30 03:47:12;;;;;;;7.60;4.93;;;;;;;;;;4974902;28;20213;-74
2023/03/30 03:49:37;;;;;;;9.00;4.97;;;;;;;;;;4976087;28;20282;-74
2023/03/30 03:52:02;;;;;;;7.23;4.77;;;;;;;;;;4969832;28;20583;-74
2023/03/30 03:54:28;;;;;;;7.83;4.87;;;;;;;;;;4968564;28;20270;-74
2023/03/30 03:56:53;;;;;;;7.63;4.63;;;;;;;;;;4971860;28;20273;-74
2023/03/30 03:59:18;;;;;;;8.43;4.70;;;;;;;;;;4972821;28;20174;-74
2023/03/30 04:01:44;;;;;;;8.33;3.70;;;;;;;;;;4973617;28;20598;-74
2023/03/30 04:04:10;;;;;;;8.47;4.80;;;;;;;;;;4967880;28;20206;-74
2023/03/30 04:06:35;;;;;;;7.80;3.53;;;;;;;;;;4976831;28;20429;-74
2023/03/30 04:09:01;;;;;;;5.20;4.10;;;;;;;;;;4976488;28;20193;-74
2023/03/30 04:11:26;;;;;;;14.60;4.53;;;;;;;;;;4977659;28;20686;-74
2023/03/30 04:13:51;;;;;;;9.63;4.53;;;;;;;;;;4974121;28;20221;-74
2023/03/30 04:16:17;;;;;;;7.83;4.50;;;;;;;;;;4973146;28;20182;-73
2023/03/30 04:18:42;;;;;;;8.07;4.43;;;;;;;;;;4975682;28;20189;-74
2023/03/30 04:21:11;;;;;;;5.83;4.30;;;;;;;;;;4976846;28;20708;-74
2023/03/30 04:23:38;;;;;;;5.37;4.00;;;;;;;;;;4973420;28;20252;-74
2023/03/30 04:26:05;;;;;;;6.77;3.60;;;;;;;;;;4972311;28;20969;-74
2023/03/30 04:28:31;;;;;;;8.50;4.67;;;;;;;;;;4971901;28;20441;-74
2023/03/30 04:30:57;;;;;;;10.87;4.40;;;;;;;;;;4971046;28;20438;-74
2023/03/30 04:33:23;;;;;;;5.63;3.40;;;;;;;;;;4968166;28;20481;-74
2023/03/30 04:35:48;;;;;;;7.87;3.47;;;;;;;;;;4973519;28;20444;-74
2023/03/30 04:38:21;;;;;;;12.50;4.07;;;;;;;;;;4957428;28;20192;-74
2023/03/30 04:40:50;;;;;;;8.43;3.93;;;;;;;;;;4966968;28;20552;-74
2023/03/30 04:43:18;;;;;;;4.07;3.20;;;;;;;;;;4978107;22;21688;-77
2023/03/30 04:45:53;;;;;;;10.60;4.27;;;;;;;;;;4973338;28;20929;-77
2023/03/30 04:48:19;;;;;;;8.20;4.13;;;;;;;;;;4971540;28;20986;-77
2023/03/30 04:50:45;;;;;;;7.70;3.80;;;;;;;;;;4969464;28;20445;-76
2023/03/30 04:53:11;;;;;;;7.20;4.10;;;;;;;;;;4965929;28;21013;-78
2023/03/30 04:55:36;;;;;;;8.80;3.23;;;;;;;;;;4965447;28;20434;-76
2023/03/30 04:58:04;;;;;;;8.37;4.30;;;;;;;;;;4964702;28;20187;-77
2023/03/30 05:00:30;;;;;;;8.80;4.57;;;;;;;;;;4965602;28;20209;-75
2023/03/30 05:02:56;;;;;;;8.90;3.77;;;;;;;;;;4964249;28;20446;-75
2023/03/30 05:05:21;;;;;;;11.20;4.30;;;;;;;;;;4962940;28;20918;-75
2023/03/30 05:07:46;;;;;;;7.70;4.10;;;;;;;;;;4977813;28;20273;-76
2023/03/30 05:10:11;;;;;;;11.40;4.43;;;;;;;;;;4972285;28;20650;-77
2023/03/30 05:12:37;;;;;;;7.63;4.33;;;;;;;;;;4982303;28;20210;-76
2023/03/30 05:15:02;;;;;;;5.73;4.13;;;;;;;;;;4975764;28;20207;-77
2023/03/30 05:17:31;;;;;;;7.70;4.23;;;;;;;;;;4971602;28;20194;-77
2023/03/30 05:19:56;;;;;;;6.43;3.97;;;;;;;;;;4977164;28;20270;-77
2023/03/30 05:22:21;;;;;;;8.87;4.20;;;;;;;;;;4982163;28;20517;-76
2023/03/30 05:24:47;;;;;;;8.63;4.00;;;;;;;;;;4982421;28;20218;-77
2023/03/30 05:27:12;;;;;;;5.90;3.97;;;;;;;;;;4974340;28;20186;-77
2023/03/30 05:29:37;;;;;;;7.10;3.70;;;;;;;;;;4982092;28;20186;-78
2023/03/30 05:32:02;;;;;;;8.63;3.70;;;;;;;;;;4977139;28;20951;-79
2023/03/30 05:34:28;;;;;;;6.77;4.00;;;;;;;;;;4973433;28;20655;-76
2023/03/30 05:36:53;;;;;;;8.40;4.07;;;;;;;;;;4980621;28;20183;-77
2023/03/30 05:39:18;;;;;;;8.53;3.70;;;;;;;;;;4976554;28;20178;-77
2023/03/30 05:41:44;;;;;;;9.50;3.60;;;;;;;;;;4977103;28;20901;-76
2023/03/30 05:44:10;;;;;;;7.80;3.50;;;;;;;;;;4982008;28;20210;-77
2023/03/30 05:46:35;;;;;;;8.77;3.60;;;;;;;;;;4975396;28;20210;-76
2023/03/30 05:49:00;;;;;;;7.73;3.97;;;;;;;;;;4980243;28;20273;-77
2023/03/30 05:51:26;;;;;;;9.50;4.00;;;;;;;;;;4984804;28;20631;-77
2023/03/30 05:53:51;;;;;;;5.40;3.00;;;;;;;;;;4973797;28;20222;-76
2023/03/30 05:56:16;;;;;;;6.53;3.57;;;;;;;;;;4989616;28;20175;-76
2023/03/30 05:58:42;;;;;;;8.30;3.70;;;;;;;;;;4975512;28;20178;-76
2023/03/30 06:01:08;;;;;;;9.27;3.40;;;;;;;;;;4982307;28;20186;-77
2023/03/30 06:03:33;;;;;;;7.13;3.40;;;;;;;;;;4988145;28;20206;-76
2023/03/30 06:05:59;;;;;;;6.60;2.80;;;;;;;;;;4987583;28;20433;-78
2023/03/30 06:08:25;;;;;;;12.37;3.07;;;;;;;;;;4986784;28;20186;-77
2023/03/30 06:10:55;;;;;;;9.37;3.00;;;;;;;;;;4993874;28;20284;-74
2023/03/30 06:13:20;;;;;;;8.60;3.50;;;;;;;;;;4985023;28;20847;-76
2023/03/30 06:15:46;;;;;;;6.60;3.33;;;;;;;;;;4985834;28;20425;-77
2023/03/30 06:18:11;;;;;;;6.40;3.30;;;;;;;;;;4994859;28;20178;-77
2023/03/30 06:20:37;;;;;;;7.07;2.87;;;;;;;;;;4981839;28;20182;-76
2023/03/30 06:23:02;;;;;;;7.37;3.27;;;;;;;;;;4986082;28;20694;-77
2023/03/30 06:25:28;;;;;;;10.40;3.53;;;;;;;;;;4982239;28;20729;-78
2023/03/30 06:27:53;;;;;;;8.20;3.73;;;;;;;;;;4993683;28;20626;-78
2023/03/30 06:30:19;;;;;;;7.33;3.27;;;;;;;;;;4985787;28;21136;-76
2023/03/30 06:32:44;;;;;;;8.10;3.50;;;;;;;;;;4985485;28;20244;-77
2023/03/30 06:35:12;;;;;;;5.73;3.00;;;;;;;;;;4993896;28;20189;-76
2023/03/30 06:37:37;;;;;;;9.57;3.90;;;;;;;;;;4987302;28;20182;-76
2023/03/30 06:40:07;;;;;;;11.77;3.77;;;;;;;;;;4981451;28;20420;-74
2023/03/30 06:42:32;;;;;;;8.93;3.77;;;;;;;;;;4985075;28;20182;-74
2023/03/30 06:44:57;;;;;;;7.70;3.20;;;;;;;;;;4987283;28;20453;-74
2023/03/30 06:47:23;;;;;;;7.40;3.80;;;;;;;;;;4989138;28;20182;-74
2023/03/30 06:49:48;;;;;;;7.70;3.50;;;;;;;;;;4985255;28;20978;-75
2023/03/30 06:52:14;;;;;;;9.00;3.63;;;;;;;;;;4983135;28;20308;-78
2023/03/30 06:54:39;;;;;;;9.10;3.03;;;;;;;;;;4979056;28;20201;-76
2023/03/30 06:57:05;;;;;;;11.37;4.07;;;;;;;;;;4982130;28;20193;-76
2023/03/30 06:59:32;;;;;;;9.87;3.40;;;;;;;;;;4979833;28;20181;-76
2023/03/30 07:01:58;;;;;;;6.70;3.20;;;;;;;;;;4982252;28;20188;-73
2023/03/30 07:04:23;;;;;;;5.80;3.53;;;;;;;;;;4992390;28;20547;-73
2023/03/30 07:06:48;;;;;;;5.47;2.93;;;;;;;;;;4993776;28;20505;-73
2023/03/30 07:09:13;;;;;;;7.37;3.37;;;;;;;;;;4987481;28;20186;-77
2023/03/30 07:11:39;;;;;;;9.80;3.10;;;;;;;;;;4989846;28;20273;-76
2023/03/30 07:14:04;;;;;;;8.13;4.60;;;;;;;;;;4986894;28;20698;-77
2023/03/30 07:16:30;;;;;;;8.33;3.70;;;;;;;;;;4984166;28;20213;-76
2023/03/30 07:18:55;;;;;;;10.13;4.10;;;;;;;;;;4982426;28;20174;-76
2023/03/30 07:21:21;;;;;;;9.70;3.50;;;;;;;;;;4981058;28;20214;-77
2023/03/30 07:23:46;;;;;;;7.90;3.57;;;;;;;;;;4985189;28;20248;-77
2023/03/30 07:26:11;;;;;;;8.93;4.30;;;;;;;;;;4984636;28;20186;-76
2023/03/30 07:28:37;;;;;;;6.93;3.47;;;;;;;;;;4993847;28;20276;-77
2023/03/30 07:31:06;;;;;;;6.87;3.27;;;;;;;;;;4985378;28;20734;-76
2023/03/30 07:33:31;;;;;;;7.13;3.67;;;;;;;;;;4989732;28;20217;-77
2023/03/30 07:35:57;;;;;;;12.20;3.70;;;;;;;;;;4986888;28;20418;-77
2023/03/30 07:38:22;;;;;;;9.37;3.80;;;;;;;;;;4987058;28;20579;-76
2023/03/30 07:40:47;;;;;;;8.03;3.40;;;;;;;;;;4984496;28;20247;-77
2023/03/30 07:43:13;;;;;;;11.97;3.67;;;;;;;;;;4990407;28;20205;-78
2023/03/30 07:45:38;;;;;;;6.20;3.33;;;;;;;;;;4981257;28;20228;-77
2023/03/30 07:48:03;;;;;;;6.40;2.90;;;;;;;;;;4984144;28;20723;-77
2023/03/30 07:50:29;;;;;;;12.33;3.77;;;;;;;;;;4988482;28;21131;-77
2023/03/30 07:52:55;;;;;;;9.43;3.23;;;;;;;;;;4987192;28;20212;-77
2023/03/30 07:55:20;;;;;;;10.37;3.67;;;;;;;;;;4987614;28;20409;-76
2023/03/30 07:57:46;;;;;;;7.83;2.87;;;;;;;;;;4982852;28;20886;-78
2023/03/30 08:00:13;;;;;;;5.57;2.47;;;;;;;;;;4984460;28;20265;-77
2023/03/30 08:02:38;;;;;;;5.53;2.80;;;;;;;;;;4987032;28;20544;-77
2023/03/30 08:05:04;;;;;;;10.57;2.60;;;;;;;;;;4981924;28;20465;-78
2023/03/30 08:07:33;;;;;;;9.63;2.60;;;;;;;;;;4987767;28;20673;-77
2023/03/30 08:09:58;;;;;;;10.97;3.20;;;;;;;;;;4986025;28;20201;-77
2023/03/30 08:12:23;;;;;;;13.40;3.50;;;;;;;;;;4987627;28;20504;-77
2023/03/30 08:14:49;;;;;;;12.93;3.00;;;;;;;;;;4981300;28;20580;-77
2023/03/30 08:17:14;;;;;;;10.00;2.90;;;;;;;;;;4979357;28;20193;-77
2023/03/30 08:19:40;;;;;;;13.17;3.70;;;;;;;;;;4980475;28;20209;-77
2023/03/30 08:22:05;;;;;;;10.73;2.70;;;;;;;;;;4988229;28;20194;-77
2023/03/30 08:24:30;;;;;;;11.23;3.40;;;;;;;;;;4989275;28;20218;-77
2023/03/30 08:26:56;;;;;;;16.60;3.67;;;;;;;;;;4984994;28;20186;-77
2023/03/30 08:29:21;;;;;;;12.10;3.50;;;;;;;;;;4989201;28;20195;-77
2023/03/30 08:31:46;;;;;;;12.80;3.60;;;;;;;;;;4983753;28;20265;-77
2023/03/30 08:34:12;;;;;;;15.53;3.50;;;;;;;;;;4989900;28;20217;-77
2023/03/30 08:36:37;;;;;;;9.30;3.47;;;;;;;;;;4979883;28;20185;-77
2023/03/30 08:39:03;;;;;;;14.63;3.80;;;;;;;;;;4985243;28;20174;-77
2023/03/30 08:41:28;;;;;;;13.90;4.10;;;;;;;;;;4981049;28;20257;-77
2023/03/30 08:43:54;;;;;;;11.17;3.23;;;;;;;;;;4985755;28;20582;-77
2023/03/30 08:46:20;;;;;;;15.77;3.77;;;;;;;;;;4976042;28;20657;-77
2023/03/30 08:48:45;;;;;;;19.63;3.50;;;;;;;;;;4981356;28;20190;-76
2023/03/30 08:51:11;;;;;;;13.83;3.50;;;;;;;;;;4990732;28;20189;-76
2023/03/30 08:53:36;;;;;;;11.90;2.77;;;;;;;;;;4981728;28;20590;-77
2023/03/30 08:56:08;;;;;;;14.57;3.30;;;;;;;;;;4988903;28;20190;-76
2023/03/30 08:58:33;;;;;;;12.73;3.70;;;;;;;;;;4987606;28;20630;-78
2023/03/30 09:01:02;;;;;;;17.87;3.50;;;;;;;;;;4985645;28;20414;-76
2023/03/30 09:03:33;;;;;;;20.43;4.00;;;;;;;;;;4979768;28;20202;-76
2023/03/30 09:06:17;;;;;;;14.47;3.20;;;;;;;;;;4983082;28;20891;-77
2023/03/30 09:08:43;;;;;;;21.90;4.47;;;;;;;;;;4984546;28;20466;-77
2023/03/30 09:11:13;;;;;;;14.80;3.40;;;;;;;;;;4989202;28;21357;-76
2023/03/30 09:13:40;;;;;;;12.30;3.43;;;;;;;;;;4979364;28;20214;-77
2023/03/30 09:16:29;;;;;;;18.47;3.57;;;;;;;;;;4990159;28;20422;-76
2023/03/30 09:18:56;;;;;;;13.93;4.53;;;;;;;;;;4977655;28;20433;-76
2023/03/30 09:21:23;;;;;;;12.17;3.57;;;;;;;;;;4983150;28;20410;-77
2023/03/30 09:23:49;;;;;;;11.00;3.20;;;;;;;;;;4991798;28;20543;-76
2023/03/30 09:26:18;;;;;;;17.40;4.27;;;;;;;;;;4988350;28;20505;-77
2023/03/30 09:28:47;;;;;;;13.23;3.30;;;;;;;;;;4995387;28;20783;-76
2023/03/30 09:31:18;;;;;;;21.17;3.50;;;;;;;;;;4996232;28;20438;-76
2023/03/30 09:33:45;;;;;;;15.03;4.33;;;;;;;;;;4985344;28;20467;-76
2023/03/30 09:36:14;;;;;;;18.13;4.17;;;;;;;;;;4984325;28;20508;-76
2023/03/30 09:38:40;;;;;;;17.43;3.90;;;;;;;;;;4985383;28;21207;-76
2023/03/30 09:41:25;;;;;;;17.77;3.73;;;;;;;;;;4991064;28;20455;-76
2023/03/30 09:43:50;;;;;;;23.50;5.27;;;;;;;;;;4987675;28;20451;-76
2023/03/30 09:46:16;;;;;;;20.23;3.97;;;;;;;;;;4986978;28;20529;-76
2023/03/30 09:48:45;;;;;;;15.47;4.50;;;;;;;;;;4979211;28;20190;-76
2023/03/30 09:51:13;;;;;;;28.30;4.73;;;;;;;;;;4989556;28;20198;-77
2023/03/30 09:53:41;;;;;;;27.83;4.80;;;;;;;;;;4985352;28;20551;-76
2023/03/30 09:56:09;;;;;;;18.73;4.93;;;;;;;;;;4984098;28;21116;-76
2023/03/30 09:58:34;;;;;;;28.60;5.80;;;;;;;;;;4980269;28;20433;-76
2023/03/30 10:01:07;;;;;;;16.40;4.03;;;;;;;;;;4979703;28;20436;-77
2023/03/30 10:03:32;;;;;;;18.90;4.77;;;;;;;;;;4980315;28;20234;-76
2023/03/30 10:06:06;;;;;;;21.93;5.97;;;;;;;;;;4977539;28;20484;-76
2023/03/30 10:08:31;;;;;;;19.93;6.50;;;;;;;;;;4983170;28;20246;-76
2023/03/30 10:10:57;;;;;;;19.43;4.83;;;;;;;;;;4974587;28;20440;-76
2023/03/30 10:13:28;;;;;;;17.33;4.47;;;;;;;;;;4979266;28;20218;-76
2023/03/30 10:15:53;;;;;;;16.03;4.30;;;;;;;;;;4972870;28;20426;-77
2023/03/30 10:18:56;;;;;;;20.33;4.73;;;;;;;;;;4975756;28;20978;-77
2023/03/30 10:21:26;;;;;;;20.13;3.90;;;;;;;;;;4997735;28;20192;-77
2023/03/30 10:23:58;;;;;;;21.90;3.67;;;;;;;;;;4974469;28;20469;-76
2023/03/30 10:26:27;;;;;;;17.20;4.40;;;;;;;;;;4975083;28;20440;-76
2023/03/30 10:28:59;;;;;;;18.50;3.80;;;;;;;;;;4980996;28;20432;-77
2023/03/30 10:31:26;;;;;;;22.77;3.60;;;;;;;;;;4986770;28;20506;-77
2023/03/30 10:33:54;;;;;;;16.70;4.53;;;;;;;;;;4988407;28;20481;-76
2023/03/30 10:36:20;;;;;;;16.70;3.70;;;;;;;;;;4978945;28;20435;-76
2023/03/30 10:38:46;;;;;;;13.77;3.00;;;;;;;;;;4985718;28;20441;-76
2023/03/30 10:41:15;;;;;;;14.33;3.40;;;;;;;;;;4978073;28;20274;-79
2023/03/30 10:43:42;;;;;;;13.70;3.60;;;;;;;;;;4981848;28;20355;-77
2023/03/30 10:46:13;;;;;;;11.10;2.90;;;;;;;;;;4976362;28;20441;-76
2023/03/30 10:48:41;;;;;;;17.63;3.33;;;;;;;;;;4973006;28;20464;-76
2023/03/30 10:51:06;;;;;;;12.80;2.90;;;;;;;;;;4987662;28;20442;-76
2023/03/30 10:53:31;;;;;;;13.50;2.90;;;;;;;;;;4980804;28;20992;-77
2023/03/30 10:56:01;;;;;;;13.20;3.07;;;;;;;;;;4981462;28;20186;-77
2023/03/30 10:58:39;;;;;;;10.00;2.60;;;;;;;;;;4979894;28;20181;-76
2023/03/30 11:01:07;;;;;;;10.60;2.40;;;;;;;;;;4980304;28;20440;-76
2023/03/30 11:03:34;;;;;;;10.23;2.73;;;;;;;;;;4979854;28;20482;-76
2023/03/30 11:06:11;;;;;;;9.60;2.57;;;;;;;;;;4980278;28;20440;-76
2023/03/30 11:08:39;;;;;;;12.20;2.87;;;;;;;;;;4977293;23;20508;-72
2023/03/30 11:11:05;;;;;;;11.70;2.50;;;;;;;;;;4962895;28;20442;-72
2023/03/30 11:13:33;;;;;;;11.07;2.23;;;;;;;;;;4964872;28;20468;-72
2023/03/30 11:16:04;;;;;;;15.33;2.50;;;;;;;;;;4963240;28;20440;-72
2023/03/30 11:18:35;;;;;;;14.23;4.00;;;;;;;;;;4969277;28;20441;-72
2023/03/30 11:21:00;;;;;;;14.17;3.50;;;;;;;;;;4957600;28;20430;-72
2023/03/30 11:23:31;;;;;;;10.33;2.50;;;;;;;;;;4964676;28;20875;-74
2023/03/30 11:25:58;;;;;;;15.13;3.30;;;;;;;;;;4964030;28;20178;-74
2023/03/30 11:28:35;;;;;;;14.13;3.40;;;;;;;;;;4970473;28;20449;-74
2023/03/30 11:31:07;;;;;;;16.07;2.97;;;;;;;;;;4965573;28;20422;-74
2023/03/30 11:33:32;;;;;;;16.33;3.77;;;;;;;;;;4966953;28;20470;-74
2023/03/30 11:36:10;;;;;;;14.37;3.17;;;;;;;;;;4965272;28;20781;-74
2023/03/30 11:38:43;;;;;;;13.60;2.70;;;;;;;;;;4965766;28;20640;-74
2023/03/30 11:41:12;;;;;;;11.27;3.20;;;;;;;;;;4966420;28;20445;-73
2023/03/30 11:43:38;;;;;;;9.10;2.50;;;;;;;;;;4966786;28;20476;-74
2023/03/30 11:46:09;;;;;;;16.50;3.33;;;;;;;;;;4967621;28;20427;-73
2023/03/30 11:48:43;;;;;;;20.50;4.07;;;;;;;;;;4965817;28;20675;-74
2023/03/30 11:51:27;;;;;;;12.00;3.20;;;;;;;;;;4966829;28;20426;-74
2023/03/30 11:53:55;;;;;;;19.03;4.10;;;;;;;;;;4968019;28;20504;-74
2023/03/30 11:56:37;;;;;;;14.70;3.40;;;;;;;;;;4963687;28;20457;-74
2023/03/30 11:59:04;;;;;;;13.00;3.37;;;;;;;;;;4968683;28;20469;-74
2023/03/30 12:01:42;;;;;;;15.10;3.53;;;;;;;;;;4967481;28;20425;-73
2023/03/30 12:04:11;;;;;;;15.83;3.40;;;;;;;;;;4971528;28;20437;-74
2023/03/30 12:06:41;;;;;;;20.30;4.30;;;;;;;;;;4966506;28;20787;-73
2023/03/30 12:09:21;;;;;;;20.20;3.73;;;;;;;;;;4956281;28;20847;-73
2023/03/30 12:11:54;;;;;;;16.20;4.33;;;;;;;;;;4964605;28;20430;-74
2023/03/30 12:14:25;;;;;;;11.90;2.73;;;;;;;;;;4971070;28;20895;-73
2023/03/30 12:16:53;;;;;;;12.97;3.80;;;;;;;;;;4961917;28;20942;-73
2023/03/30 12:19:24;;;;;;;13.20;3.90;;;;;;;;;;4963752;28;20971;-73
2023/03/30 12:22:18;;;;;;;19.53;4.00;;;;;;;;;;4964697;28;20486;-74
2023/03/30 12:24:57;;;;;;;15.13;3.40;;;;;;;;;;4973697;28;20442;-74
2023/03/30 12:27:24;;;;;;;16.73;3.83;;;;;;;;;;4964121;28;20573;-74
2023/03/30 12:29:51;;;;;;;12.67;3.50;;;;;;;;;;4969325;28;20415;-74
2023/03/30 12:32:29;;;;;;;17.13;3.27;;;;;;;;;;4964541;28;20503;-74
2023/03/30 12:34:56;;;;;;;15.80;3.43;;;;;;;;;;4964287;28;20419;-74
2023/03/30 12:37:22;;;;;;;19.30;3.60;;;;;;;;;;4968311;28;20438;-74
2023/03/30 12:39:52;;;;;;;16.87;3.97;;;;;;;;;;4964630;28;20766;-74
2023/03/30 12:42:27;;;;;;;19.37;3.70;;;;;;;;;;4958814;28;20449;-73
2023/03/30 12:45:10;;;;;;;20.37;3.93;;;;;;;;;;4966064;28;20415;-74
2023/03/30 12:47:39;;;;;;;18.20;4.50;;;;;;;;;;4965210;28;20445;-74
2023/03/30 12:50:07;;;;;;;16.83;4.13;;;;;;;;;;4967604;28;20426;-74
2023/03/30 12:52:42;;;;;;;19.50;4.30;;;;;;;;;;4963515;28;20891;-74
2023/03/30 12:55:14;;;;;;;19.60;4.57;;;;;;;;;;4958386;28;20979;-74
2023/03/30 12:57:55;;;;;;;14.97;3.90;;;;;;;;;;4964955;28;20438;-74
2023/03/30 13:00:23;;;;;;;16.60;4.53;;;;;;;;;;4966386;28;20523;-74
2023/03/30 13:02:49;;;;;;;13.63;4.00;;;;;;;;;;4968239;28;20429;-73
2023/03/30 13:05:22;;;;;;;18.10;3.77;;;;;;;;;;4970004;28;20418;-74
2023/03/30 13:07:48;;;;;;;16.17;3.23;;;;;;;;;;4967917;28;20457;-75
2023/03/30 13:10:29;;;;;;;15.83;3.40;;;;;;;;;;4963884;28;20449;-73
2023/03/30 13:12:55;;;;;;;13.97;3.80;;;;;;;;;;4963284;28;20484;-73
2023/03/30 13:15:32;;;;;;;22.27;3.50;;;;;;;;;;4962558;28;20442;-73
2023/03/30 13:17:59;;;;;;;17.43;3.80;;;;;;;;;;4966451;28;20458;-73
2023/03/30 13:20:35;;;;;;;13.03;3.20;;;;;;;;;;4965643;28;20449;-73
2023/03/30 13:23:09;;;;;;;22.37;4.63;;;;;;;;;;4963675;28;20452;-73
2023/03/30 13:25:45;;;;;;;17.63;3.27;;;;;;;;;;4960004;28;20550;-73
2023/03/30 13:28:29;;;;;;;10.60;3.70;;;;;;;;;;4969769;28;20510;-72
2023/03/30 13:30:58;;;;;;;23.50;5.50;;;;;;;;;;4963589;28;20501;-73
2023/03/30 13:33:23;;;;;;;16.63;4.17;;;;;;;;;;4960599;28;20470;-73
2023/03/30 13:35:56;;;;;;;13.47;4.07;;;;;;;;;;4959930;28;20460;-72
2023/03/30 13:38:37;;;;;;;17.13;3.90;;;;;;;;;;4962943;28;20215;-73
2023/03/30 13:41:06;;;;;;;15.33;3.77;;;;;;;;;;4964047;28;20426;-73
2023/03/30 13:43:38;;;;;;;17.53;4.23;;;;;;;;;;4961186;28;20442;-73
2023/03/30 13:46:21;;;;;;;20.67;4.50;;;;;;;;;;4962138;28;20507;-73
2023/03/30 13:48:47;;;;;;;10.90;3.17;;;;;;;;;;4960679;28;20468;-73
2023/03/30 13:51:15;;;;;;;12.80;3.83;;;;;;;;;;4961297;28;20441;-74
2023/03/30 13:53:43;;;;;;;15.13;3.73;;;;;;;;;;4963857;28;20604;-74
2023/03/30 13:56:10;;;;;;;14.50;4.27;;;;;;;;;;4964302;28;20946;-73
2023/03/30 13:58:36;;;;;;;21.43;4.33;;;;;;;;;;4962076;28;20454;-74
2023/03/30 14:01:06;;;;;;;14.43;4.23;;;;;;;;;;4961605;28;21414;-74
2023/03/30 14:03:40;;;;;;;20.57;4.07;;;;;;;;;;4981485;28;20784;-74
2023/03/30 14:06:12;;;;;;;17.97;3.80;;;;;;;;;;4963875;28;20469;-74
2023/03/30 14:08:38;;;;;;;23.73;4.40;;;;;;;;;;4959220;28;20472;-74
2023/03/30 14:11:07;;;;;;;20.77;4.53;;;;;;;;;;4964214;28;20446;-74
2023/03/30 14:13:35;;;;;;;19.73;4.30;;;;;;;;;;4966052;28;20457;-74
2023/03/30 14:16:01;;;;;;;17.30;3.87;;;;;;;;;;4961935;28;20437;-74
2023/03/30 14:18:26;;;;;;;19.73;4.17;;;;;;;;;;4965039;28;20452;-74
2023/03/30 14:20:52;;;;;;;16.17;3.93;;;;;;;;;;4965157;28;20186;-74
2023/03/30 14:23:20;;;;;;;22.07;4.47;;;;;;;;;;4966626;28;20297;-74
2023/03/30 14:25:46;;;;;;;16.37;4.30;;;;;;;;;;4964265;28;20504;-74
2023/03/30 14:28:11;;;;;;;18.03;5.47;;;;;;;;;;4966227;28;20446;-75
2023/03/30 14:30:36;;;;;;;24.50;5.20;;;;;;;;;;4963852;28;20642;-74
2023/03/30 14:33:06;;;;;;;18.93;4.20;;;;;;;;;;4964176;28;20717;-74
2023/03/30 14:35:32;;;;;;;19.33;4.90;;;;;;;;;;4964270;28;20258;-74
2023/03/30 14:37:57;;;;;;;22.73;5.00;;;;;;;;;;4968367;28;20538;-74